Piper Inness — WDC3984 — position and weather

sailwx.info

Track history (hours):
 
Tides and Currents Weather Stations Pressure Air Temp Water Temp Dewpoint Dewpoint Depression Visibility Wind Speed Wind Dir Waves Ship Positions

Piper Inness

Owner: Foss Maritime Co, Seattle, WA. More information available from US FCC via Universal Licensing System and Coast Guard Vessel Documentation Center.

Last reported at 2015-Apr-18 23:34 UTC. Time now 2015-Apr-18 23:38 UTC.
Position N 33°46' W 118°13'.

; draft 2 m.

Type: Other ship. MMSI: 367017440.

Date/timePositionNaut miles runAvg speedWind from/ knotsBaromVisibWave heightAir tempDewpointWater temp
2015-Apr-18 23:34N 33°46' W 118°13'0 0.0
2015-Apr-18 22:33N 33°46' W 118°13'0 0.0
2015-Apr-18 21:33N 33°46' W 118°13'0 0.0
2015-Apr-18 20:33N 33°46' W 118°13'0 0.0
2015-Apr-18 19:34N 33°46' W 118°13'0 0.0
2015-Apr-18 18:33N 33°46' W 118°13'0 0.0
2015-Apr-18 17:34N 33°46' W 118°13'0 0.0
2015-Apr-18 16:34N 33°46' W 118°13'0 0.0
2015-Apr-18 15:33N 33°46' W 118°13'0 0.0
2015-Apr-18 14:33N 33°46' W 118°13'0 0.0
2015-Apr-18 13:33N 33°46' W 118°13'0 0.0
2015-Apr-18 12:33N 33°46' W 118°13'0 0.0
2015-Apr-18 11:34N 33°46' W 118°13'0 0.0
2015-Apr-18 10:34N 33°46' W 118°13'0 0.0
2015-Apr-18 09:32N 33°46' W 118°13'0 0.0
2015-Apr-18 08:33N 33°46' W 118°13'0 0.0
2015-Apr-18 07:34N 33°46' W 118°13'0 0.0
2015-Apr-18 06:33N 33°46' W 118°13'0 0.0
2015-Apr-18 05:32N 33°46' W 118°13'0 0.0
2015-Apr-18 04:34N 33°46' W 118°13'0 0.0
2015-Apr-18 03:33N 33°46' W 118°13'0 0.0
2015-Apr-18 02:33N 33°46' W 118°13'0 0.0
2015-Apr-18 01:33N 33°46' W 118°13'0 0.0
2015-Apr-18 00:28N 33°46' W 118°13'0 0.0
2015-Apr-17 23:33N 33°46' W 118°13'0 0.0
2015-Apr-17 22:20N 33°46' W 118°13'2 2.3
2015-Apr-17 21:33N 33°44' W 118°13'1615.7
2015-Apr-17 20:33N 33°30' W 118°04'1616.4
2015-Apr-17 19:33N 33°15' W 117°56'1010.2
2015-Apr-17 18:33N 33°06' W 117°52'1 0.8
2015-Apr-17 17:34N 33°06' W 117°53'2 2.0
2015-Apr-17 16:33N 33°05' W 117°54'0 0.3
2015-Apr-17 15:33N 33°04' W 117°54'1 1.4
2015-Apr-17 14:34N 33°03' W 117°53'2 2.0
2015-Apr-17 13:34N 33°01' W 117°52'1 1.1
2015-Apr-17 12:34N 33°00' W 117°51'0 0.3
2015-Apr-17 11:34N 33°01' W 117°51'2 2.0
2015-Apr-17 10:34N 32°59' W 117°50'1 1.4
2015-Apr-17 09:34N 32°58' W 117°49'1 0.8
2015-Apr-17 08:34N 32°57' W 117°49'1 0.5
2015-Apr-17 07:33N 32°57' W 117°49'0 0.4
2015-Apr-17 06:33N 32°56' W 117°49'1 1.2
2015-Apr-17 05:34N 32°55' W 117°48'0 0.5
2015-Apr-17 04:34N 32°55' W 117°47'2 2.0
2015-Apr-17 03:33N 32°54' W 117°46'0 0.2
2015-Apr-17 02:34N 32°54' W 117°45'1 1.2
2015-Apr-17 01:33N 32°55' W 117°44'1 1.0
2015-Apr-17 00:34N 32°55' W 117°43'2 1.7
2015-Apr-16 23:33N 32°56' W 117°45'5 4.8
2015-Apr-16 22:34N 33°00' W 117°47'5 5.4
2015-Apr-16 21:33N 33°05' W 117°50'4 4.2
2015-Apr-16 20:34N 33°09' W 117°51'1 1.1
2015-Apr-16 19:34N 33°09' W 117°53'5 4.7
2015-Apr-16 18:33N 33°10' W 117°58'1817.0
2015-Apr-16 17:30N 33°27' W 118°04'1815.9
2015-Apr-16 16:22N 33°44' W 118°12'2 2.9
2015-Apr-16 15:33N 33°46' W 118°13'1 0.5
2015-Apr-16 14:32N 33°46' W 118°13'0 0.0
2015-Apr-16 13:11N 33°46' W 118°13'0 0.0
2015-Apr-16 12:28N 33°46' W 118°13'0 0.0
2015-Apr-16 11:32N 33°46' W 118°13'0 0.0
2015-Apr-16 10:34N 33°46' W 118°13'0 0.0
2015-Apr-16 09:34N 33°46' W 118°13'0 0.0
2015-Apr-16 08:33N 33°46' W 118°13'0 0.0
2015-Apr-16 07:34N 33°46' W 118°13'0 0.0
2015-Apr-16 06:33N 33°46' W 118°13'0 0.0
2015-Apr-16 05:34N 33°46' W 118°13'0 0.0
2015-Apr-16 04:33N 33°46' W 118°13'0 0.0
2015-Apr-16 03:34N 33°46' W 118°13'0 0.0
2015-Apr-16 02:33N 33°46' W 118°13'0 0.0
2015-Apr-16 01:34N 33°46' W 118°13'0 0.0
2015-Apr-16 00:34N 33°46' W 118°13'0 0.0
2015-Apr-15 23:33N 33°46' W 118°13'0 0.0
2015-Apr-15 22:34N 33°46' W 118°13'0 0.0
2015-Apr-15 21:34N 33°46' W 118°13'0 0.0
2015-Apr-15 20:33N 33°46' W 118°13'0 0.0
2015-Apr-15 19:34N 33°46' W 118°13'0 0.0
2015-Apr-15 18:33N 33°46' W 118°13'0 0.0
2015-Apr-15 17:33N 33°46' W 118°13'0 0.0
2015-Apr-15 16:34N 33°46' W 118°13'0 0.0
2015-Apr-15 15:33N 33°46' W 118°13'0 0.0
2015-Apr-15 14:32N 33°46' W 118°13'0 0.0
2015-Apr-15 13:27N 33°46' W 118°13'0 0.0
2015-Apr-15 12:25N 33°46' W 118°13'0 0.0
2015-Apr-15 11:33N 33°46' W 118°13'0 0.0
2015-Apr-15 10:30N 33°46' W 118°13'0 0.0
2015-Apr-15 09:17N 33°46' W 118°13'0 0.0
2015-Apr-15 08:33N 33°46' W 118°13'0 0.0
2015-Apr-15 07:34N 33°46' W 118°13'0 0.0
2015-Apr-15 06:27N 33°46' W 118°13'0 0.0
2015-Apr-15 05:33N 33°46' W 118°13'0 0.0
2015-Apr-15 04:32N 33°46' W 118°13'0 0.0
2015-Apr-15 03:32N 33°46' W 118°13'0 0.0
2015-Apr-15 02:33N 33°46' W 118°13'0 0.0
2015-Apr-15 00:32N 33°46' W 118°13'0 0.0
2015-Apr-14 23:33N 33°46' W 118°13'0 0.0
2015-Apr-14 22:33N 33°46' W 118°13'0 0.0
2015-Apr-14 21:33N 33°46' W 118°13'0 0.0
2015-Apr-14 20:33N 33°46' W 118°13'0 0.0
2015-Apr-14 19:33N 33°46' W 118°13'0 0.0
2015-Apr-14 18:34N 33°46' W 118°13'0 0.0
2015-Apr-14 17:33N 33°46' W 118°13'0 0.0
2015-Apr-14 16:34N 33°46' W 118°13'1 0.6
2015-Apr-14 15:34N 33°46' W 118°13'1 0.6
2015-Apr-14 14:34N 33°46' W 118°13'0 0.0
2015-Apr-14 13:33N 33°46' W 118°13'0 0.0
2015-Apr-14 12:33N 33°46' W 118°13'0 0.0
2015-Apr-14 11:33N 33°46' W 118°13'0 0.0
2015-Apr-14 10:33N 33°46' W 118°13'0 0.0
2015-Apr-14 09:33N 33°46' W 118°13'0 0.0
2015-Apr-14 06:33N 33°46' W 118°13'0 0.0
2015-Apr-14 05:30N 33°46' W 118°13'0 0.0
2015-Apr-14 04:27N 33°46' W 118°13'0 0.0
2015-Apr-14 03:33N 33°46' W 118°13'0 0.0
2015-Apr-14 02:33N 33°46' W 118°13'0 0.0
2015-Apr-14 01:33N 33°46' W 118°13'0 0.0
2015-Apr-14 00:33N 33°46' W 118°13'0 0.0
2015-Apr-13 23:33N 33°46' W 118°13'0 0.0
2015-Apr-13 22:33N 33°46' W 118°13'0 0.0
2015-Apr-13 21:33N 33°46' W 118°13'0 0.0
2015-Apr-13 20:33N 33°46' W 118°13'1 0.6
2015-Apr-13 19:33N 33°46' W 118°13'1 0.3
2015-Apr-13 16:30N 33°45' W 118°13'2 1.6
2015-Apr-13 15:33N 33°46' W 118°13'0 0.0
2015-Apr-13 14:33N 33°46' W 118°13'0 0.0
2015-Apr-13 13:33N 33°46' W 118°13'0 0.0
2015-Apr-13 12:33N 33°46' W 118°13'0 0.0
2015-Apr-13 11:33N 33°46' W 118°13'0 0.0
2015-Apr-13 10:33N 33°46' W 118°13'0 0.0
2015-Apr-13 09:33N 33°46' W 118°13'0 0.0
2015-Apr-13 08:33N 33°46' W 118°13'0 0.0
2015-Apr-13 07:33N 33°46' W 118°13'0 0.0
2015-Apr-13 06:33N 33°46' W 118°13'0 0.0
2015-Apr-13 05:33N 33°46' W 118°13'0 0.0
2015-Apr-13 04:33N 33°46' W 118°13'0 0.0
2015-Apr-13 03:33N 33°46' W 118°13'0 0.0
2015-Apr-13 02:33N 33°46' W 118°13'0 0.0
2015-Apr-13 01:33N 33°46' W 118°13'0 0.0
2015-Apr-13 00:33N 33°46' W 118°13'0 0.0
2015-Apr-12 23:33N 33°46' W 118°13'0 0.0
2015-Apr-12 22:33N 33°46' W 118°13'0 0.0
2015-Apr-12 21:33N 33°46' W 118°13'8 8.1
2015-Apr-12 20:33N 33°39' W 118°08'2017.2
2015-Apr-12 19:24N 33°20' W 118°01'1214.5
2015-Apr-12 18:33N 33°08' W 117°56'4 3.8
2015-Apr-12 17:34N 33°06' W 117°53'1 0.9
2015-Apr-12 16:33N 33°05' W 117°53'1 0.6
2015-Apr-12 15:34N 33°04' W 117°53'1 1.3
2015-Apr-12 14:33N 33°03' W 117°53'2 1.6
2015-Apr-12 13:33N 33°02' W 117°52'2 1.8
2015-Apr-12 12:33N 33°00' W 117°52'1 0.7
2015-Apr-12 11:33N 33°00' W 117°52'1 0.6
2015-Apr-12 10:33N 33°00' W 117°51'2 1.9
2015-Apr-12 09:33N 32°59' W 117°49'2 2.2
2015-Apr-12 08:33N 32°57' W 117°48'0 0.4
2015-Apr-12 07:34N 32°57' W 117°48'3 3.2
2015-Apr-12 06:34N 32°56' W 117°44'2 1.9
2015-Apr-12 05:33N 32°57' W 117°42'1 1.3
2015-Apr-12 04:33N 32°58' W 117°43'2 1.7
2015-Apr-12 03:33N 32°59' W 117°44'2 2.0
2015-Apr-12 02:33N 33°00' W 117°45'3 2.9
2015-Apr-12 01:33N 32°58' W 117°44'1 0.6
2015-Apr-12 00:33N 32°57' W 117°44'2 1.6
2015-Apr-11 23:33N 32°59' W 117°45'1 1.2
2015-Apr-11 22:33N 32°59' W 117°46'1 1.0
2015-Apr-11 21:33N 32°58' W 117°48'2 2.0
2015-Apr-11 20:33N 32°59' W 117°50'2 1.6
2015-Apr-11 19:33N 32°59' W 117°48'1 0.7
2015-Apr-11 18:33N 32°59' W 117°49'1 1.1
2015-Apr-11 17:33N 32°58' W 117°48'4 3.9
2015-Apr-11 16:33N 32°55' W 117°51'1 1.3
2015-Apr-11 15:33N 32°56' W 117°50'2 1.9
2015-Apr-11 14:33N 32°57' W 117°48'3 3.3
2015-Apr-11 13:33N 32°60' W 117°51'4 3.9
2015-Apr-11 12:33N 33°03' W 117°53'4 3.8
2015-Apr-11 11:32N 33°07' W 117°53'7 7.3
2015-Apr-11 10:33N 33°11' W 118°00'3515.9
2015-Apr-11 08:23N 33°44' W 118°12'3 2.5
2015-Apr-11 07:24N 33°46' W 118°13'0 0.0
2015-Apr-11 06:33N 33°46' W 118°13'0 0.0
2015-Apr-11 05:33N 33°46' W 118°13'0 0.0
2015-Apr-11 04:15N 33°46' W 118°13'0 0.0
2015-Apr-11 03:33N 33°46' W 118°13'0 0.0
2015-Apr-11 02:32N 33°46' W 118°13'0 0.0
2015-Apr-11 01:33N 33°46' W 118°13'0 0.0
2015-Apr-11 00:33N 33°46' W 118°13'0 0.0
2015-Apr-10 23:33N 33°46' W 118°13'0 0.0
2015-Apr-10 22:31N 33°46' W 118°13'0 0.0
2015-Apr-10 21:33N 33°46' W 118°13'0 0.0
2015-Apr-10 19:32N 33°46' W 118°13'0 0.0
2015-Apr-10 18:19N 33°46' W 118°13'0 0.0
2015-Apr-10 17:33N 33°46' W 118°13'0 0.0
2015-Apr-10 16:33N 33°46' W 118°13'0 0.0
2015-Apr-10 15:33N 33°46' W 118°13'3314.5
2015-Apr-10 13:16N 33°16' W 117°56'1216.8
2015-Apr-10 12:33N 33°05' W 117°50'2 1.5
2015-Apr-10 11:33N 33°04' W 117°50'0 0.4
2015-Apr-10 10:33N 33°03' W 117°50'3 2.8
2015-Apr-10 09:33N 33°02' W 117°48'2 1.5
2015-Apr-10 08:33N 33°00' W 117°49'1 0.6
2015-Apr-10 07:33N 32°60' W 117°49'2 2.2
2015-Apr-10 06:32N 32°58' W 117°48'1 0.8
2015-Apr-10 05:33N 32°57' W 117°48'1 0.7
2015-Apr-10 04:33N 32°57' W 117°47'2 2.5
2015-Apr-10 03:34N 32°57' W 117°44'5 5.3
2015-Apr-10 02:33N 33°01' W 117°48'4 4.5
2015-Apr-10 01:33N 33°04' W 117°52'4 4.3
2015-Apr-10 00:33N 33°07' W 117°56'4 3.8
2015-Apr-09 23:33N 33°04' W 117°53'0 0.3
2015-Apr-09 22:33N 33°04' W 117°53'0 0.2
2015-Apr-09 21:33N 33°04' W 117°53'3 3.0
2015-Apr-09 20:33N 33°01' W 117°51'0 0.2
2015-Apr-09 19:33N 33°01' W 117°51'3 2.6
2015-Apr-09 18:33N 32°58' W 117°50'1 0.7
2015-Apr-09 17:34N 32°59' W 117°50'5 5.2
2015-Apr-09 16:33N 32°54' W 117°49'1 0.7
2015-Apr-09 15:33N 32°54' W 117°48'2 1.6
2015-Apr-09 14:33N 32°56' W 117°48'3 3.4
2015-Apr-09 13:33N 32°53' W 117°45'1 1.2
2015-Apr-09 12:33N 32°54' W 117°45'1 1.0
2015-Apr-09 11:33N 32°55' W 117°46'0 0.3
2015-Apr-09 10:33N 32°55' W 117°46'2 1.7
2015-Apr-09 09:33N 32°55' W 117°48'3 3.2
2015-Apr-09 08:33N 32°57' W 117°50'2 2.1
2015-Apr-09 07:34N 32°56' W 117°48'2 2.5
2015-Apr-09 06:33N 32°58' W 117°50'4 3.8
2015-Apr-09 05:33N 33°01' W 117°52'5 4.7
2015-Apr-09 04:33N 33°05' W 117°55'3 2.5
2015-Apr-09 03:33N 33°08' W 117°55'1 1.2
2015-Apr-09 02:33N 33°09' W 117°54'3 2.7
2015-Apr-09 01:33N 33°11' W 117°56'  
Track history (hours):
 
Tides and Currents Weather Stations Pressure Air Temp Water Temp Dewpoint Dewpoint Depression Visibility Wind Speed Wind Dir Waves Ship Positions

Piper Inness

Owner: Foss Maritime Co, Seattle, WA. More information available from US FCC via Universal Licensing System and Coast Guard Vessel Documentation Center.

Last reported at 2015-Apr-18 23:34 UTC. Time now 2015-Apr-18 23:38 UTC.
Position N 33°46' W 118°13'.

; draft 2 m.

Type: Other ship. MMSI: 367017440.

Date/timePositionNaut miles runAvg speedWind from/ knotsBaromVisibWave heightAir tempDewpointWater temp
2015-Apr-18 23:34N 33°46' W 118°13'0 0.0
2015-Apr-18 22:33N 33°46' W 118°13'0 0.0
2015-Apr-18 21:33N 33°46' W 118°13'0 0.0
2015-Apr-18 20:33N 33°46' W 118°13'0 0.0
2015-Apr-18 19:34N 33°46' W 118°13'0 0.0
2015-Apr-18 18:33N 33°46' W 118°13'0 0.0
2015-Apr-18 17:34N 33°46' W 118°13'0 0.0
2015-Apr-18 16:34N 33°46' W 118°13'0 0.0
2015-Apr-18 15:33N 33°46' W 118°13'0 0.0
2015-Apr-18 14:33N 33°46' W 118°13'0 0.0
2015-Apr-18 13:33N 33°46' W 118°13'0 0.0
2015-Apr-18 12:33N 33°46' W 118°13'0 0.0
2015-Apr-18 11:34N 33°46' W 118°13'0 0.0
2015-Apr-18 10:34N 33°46' W 118°13'0 0.0
2015-Apr-18 09:32N 33°46' W 118°13'0 0.0
2015-Apr-18 08:33N 33°46' W 118°13'0 0.0
2015-Apr-18 07:34N 33°46' W 118°13'0 0.0
2015-Apr-18 06:33N 33°46' W 118°13'0 0.0
2015-Apr-18 05:32N 33°46' W 118°13'0 0.0
2015-Apr-18 04:34N 33°46' W 118°13'0 0.0
2015-Apr-18 03:33N 33°46' W 118°13'0 0.0
2015-Apr-18 02:33N 33°46' W 118°13'0 0.0
2015-Apr-18 01:33N 33°46' W 118°13'0 0.0
2015-Apr-18 00:28N 33°46' W 118°13'0 0.0
2015-Apr-17 23:33N 33°46' W 118°13'0 0.0
2015-Apr-17 22:20N 33°46' W 118°13'2 2.3
2015-Apr-17 21:33N 33°44' W 118°13'1615.7
2015-Apr-17 20:33N 33°30' W 118°04'1616.4
2015-Apr-17 19:33N 33°15' W 117°56'1010.2
2015-Apr-17 18:33N 33°06' W 117°52'1 0.8
2015-Apr-17 17:34N 33°06' W 117°53'2 2.0
2015-Apr-17 16:33N 33°05' W 117°54'0 0.3
2015-Apr-17 15:33N 33°04' W 117°54'1 1.4
2015-Apr-17 14:34N 33°03' W 117°53'2 2.0
2015-Apr-17 13:34N 33°01' W 117°52'1 1.1
2015-Apr-17 12:34N 33°00' W 117°51'0 0.3
2015-Apr-17 11:34N 33°01' W 117°51'2 2.0
2015-Apr-17 10:34N 32°59' W 117°50'1 1.4
2015-Apr-17 09:34N 32°58' W 117°49'1 0.8
2015-Apr-17 08:34N 32°57' W 117°49'1 0.5
2015-Apr-17 07:33N 32°57' W 117°49'0 0.4
2015-Apr-17 06:33N 32°56' W 117°49'1 1.2
2015-Apr-17 05:34N 32°55' W 117°48'0 0.5
2015-Apr-17 04:34N 32°55' W 117°47'2 2.0
2015-Apr-17 03:33N 32°54' W 117°46'0 0.2
2015-Apr-17 02:34N 32°54' W 117°45'1 1.2
2015-Apr-17 01:33N 32°55' W 117°44'1 1.0
2015-Apr-17 00:34N 32°55' W 117°43'2 1.7
2015-Apr-16 23:33N 32°56' W 117°45'5 4.8
2015-Apr-16 22:34N 33°00' W 117°47'5 5.4
2015-Apr-16 21:33N 33°05' W 117°50'4 4.2
2015-Apr-16 20:34N 33°09' W 117°51'1 1.1
2015-Apr-16 19:34N 33°09' W 117°53'5 4.7
2015-Apr-16 18:33N 33°10' W 117°58'1817.0
2015-Apr-16 17:30N 33°27' W 118°04'1815.9
2015-Apr-16 16:22N 33°44' W 118°12'2 2.9
2015-Apr-16 15:33N 33°46' W 118°13'1 0.5
2015-Apr-16 14:32N 33°46' W 118°13'0 0.0
2015-Apr-16 13:11N 33°46' W 118°13'0 0.0
2015-Apr-16 12:28N 33°46' W 118°13'0 0.0
2015-Apr-16 11:32N 33°46' W 118°13'0 0.0
2015-Apr-16 10:34N 33°46' W 118°13'0 0.0
2015-Apr-16 09:34N 33°46' W 118°13'0 0.0
2015-Apr-16 08:33N 33°46' W 118°13'0 0.0
2015-Apr-16 07:34N 33°46' W 118°13'0 0.0
2015-Apr-16 06:33N 33°46' W 118°13'0 0.0
2015-Apr-16 05:34N 33°46' W 118°13'0 0.0
2015-Apr-16 04:33N 33°46' W 118°13'0 0.0
2015-Apr-16 03:34N 33°46' W 118°13'0 0.0
2015-Apr-16 02:33N 33°46' W 118°13'0 0.0
2015-Apr-16 01:34N 33°46' W 118°13'0 0.0
2015-Apr-16 00:34N 33°46' W 118°13'0 0.0
2015-Apr-15 23:33N 33°46' W 118°13'0 0.0
2015-Apr-15 22:34N 33°46' W 118°13'0 0.0
2015-Apr-15 21:34N 33°46' W 118°13'0 0.0
2015-Apr-15 20:33N 33°46' W 118°13'0 0.0
2015-Apr-15 19:34N 33°46' W 118°13'0 0.0
2015-Apr-15 18:33N 33°46' W 118°13'0 0.0
2015-Apr-15 17:33N 33°46' W 118°13'0 0.0
2015-Apr-15 16:34N 33°46' W 118°13'0 0.0
2015-Apr-15 15:33N 33°46' W 118°13'0 0.0
2015-Apr-15 14:32N 33°46' W 118°13'0 0.0
2015-Apr-15 13:27N 33°46' W 118°13'0 0.0
2015-Apr-15 12:25N 33°46' W 118°13'0 0.0
2015-Apr-15 11:33N 33°46' W 118°13'0 0.0
2015-Apr-15 10:30N 33°46' W 118°13'0 0.0
2015-Apr-15 09:17N 33°46' W 118°13'0 0.0
2015-Apr-15 08:33N 33°46' W 118°13'0 0.0
2015-Apr-15 07:34N 33°46' W 118°13'0 0.0
2015-Apr-15 06:27N 33°46' W 118°13'0 0.0
2015-Apr-15 05:33N 33°46' W 118°13'0 0.0
2015-Apr-15 04:32N 33°46' W 118°13'0 0.0
2015-Apr-15 03:32N 33°46' W 118°13'0 0.0
2015-Apr-15 02:33N 33°46' W 118°13'0 0.0
2015-Apr-15 00:32N 33°46' W 118°13'0 0.0
2015-Apr-14 23:33N 33°46' W 118°13'0 0.0
2015-Apr-14 22:33N 33°46' W 118°13'0 0.0
2015-Apr-14 21:33N 33°46' W 118°13'0 0.0
2015-Apr-14 20:33N 33°46' W 118°13'0 0.0
2015-Apr-14 19:33N 33°46' W 118°13'0 0.0
2015-Apr-14 18:34N 33°46' W 118°13'0 0.0
2015-Apr-14 17:33N 33°46' W 118°13'0 0.0
2015-Apr-14 16:34N 33°46' W 118°13'1 0.6
2015-Apr-14 15:34N 33°46' W 118°13'1 0.6
2015-Apr-14 14:34N 33°46' W 118°13'0 0.0
2015-Apr-14 13:33N 33°46' W 118°13'0 0.0
2015-Apr-14 12:33N 33°46' W 118°13'0 0.0
2015-Apr-14 11:33N 33°46' W 118°13'0 0.0
2015-Apr-14 10:33N 33°46' W 118°13'0 0.0
2015-Apr-14 09:33N 33°46' W 118°13'0 0.0
2015-Apr-14 06:33N 33°46' W 118°13'0 0.0
2015-Apr-14 05:30N 33°46' W 118°13'0 0.0
2015-Apr-14 04:27N 33°46' W 118°13'0 0.0
2015-Apr-14 03:33N 33°46' W 118°13'0 0.0
2015-Apr-14 02:33N 33°46' W 118°13'0 0.0
2015-Apr-14 01:33N 33°46' W 118°13'0 0.0
2015-Apr-14 00:33N 33°46' W 118°13'0 0.0
2015-Apr-13 23:33N 33°46' W 118°13'0 0.0
2015-Apr-13 22:33N 33°46' W 118°13'0 0.0
2015-Apr-13 21:33N 33°46' W 118°13'0 0.0
2015-Apr-13 20:33N 33°46' W 118°13'1 0.6
2015-Apr-13 19:33N 33°46' W 118°13'1 0.3
2015-Apr-13 16:30N 33°45' W 118°13'2 1.6
2015-Apr-13 15:33N 33°46' W 118°13'0 0.0
2015-Apr-13 14:33N 33°46' W 118°13'0 0.0
2015-Apr-13 13:33N 33°46' W 118°13'0 0.0
2015-Apr-13 12:33N 33°46' W 118°13'0 0.0
2015-Apr-13 11:33N 33°46' W 118°13'0 0.0
2015-Apr-13 10:33N 33°46' W 118°13'0 0.0
2015-Apr-13 09:33N 33°46' W 118°13'0 0.0
2015-Apr-13 08:33N 33°46' W 118°13'0 0.0
2015-Apr-13 07:33N 33°46' W 118°13'0 0.0
2015-Apr-13 06:33N 33°46' W 118°13'0 0.0
2015-Apr-13 05:33N 33°46' W 118°13'0 0.0
2015-Apr-13 04:33N 33°46' W 118°13'0 0.0
2015-Apr-13 03:33N 33°46' W 118°13'0 0.0
2015-Apr-13 02:33N 33°46' W 118°13'0 0.0
2015-Apr-13 01:33N 33°46' W 118°13'0 0.0
2015-Apr-13 00:33N 33°46' W 118°13'0 0.0
2015-Apr-12 23:33N 33°46' W 118°13'0 0.0
2015-Apr-12 22:33N 33°46' W 118°13'0 0.0
2015-Apr-12 21:33N 33°46' W 118°13'8 8.1
2015-Apr-12 20:33N 33°39' W 118°08'2017.2
2015-Apr-12 19:24N 33°20' W 118°01'1214.5
2015-Apr-12 18:33N 33°08' W 117°56'4 3.8
2015-Apr-12 17:34N 33°06' W 117°53'1 0.9
2015-Apr-12 16:33N 33°05' W 117°53'1 0.6
2015-Apr-12 15:34N 33°04' W 117°53'1 1.3
2015-Apr-12 14:33N 33°03' W 117°53'2 1.6
2015-Apr-12 13:33N 33°02' W 117°52'2 1.8
2015-Apr-12 12:33N 33°00' W 117°52'1 0.7
2015-Apr-12 11:33N 33°00' W 117°52'1 0.6
2015-Apr-12 10:33N 33°00' W 117°51'2 1.9
2015-Apr-12 09:33N 32°59' W 117°49'2 2.2
2015-Apr-12 08:33N 32°57' W 117°48'0 0.4
2015-Apr-12 07:34N 32°57' W 117°48'3 3.2
2015-Apr-12 06:34N 32°56' W 117°44'2 1.9
2015-Apr-12 05:33N 32°57' W 117°42'1 1.3
2015-Apr-12 04:33N 32°58' W 117°43'2 1.7
2015-Apr-12 03:33N 32°59' W 117°44'2 2.0
2015-Apr-12 02:33N 33°00' W 117°45'3 2.9
2015-Apr-12 01:33N 32°58' W 117°44'1 0.6
2015-Apr-12 00:33N 32°57' W 117°44'2 1.6
2015-Apr-11 23:33N 32°59' W 117°45'1 1.2
2015-Apr-11 22:33N 32°59' W 117°46'1 1.0
2015-Apr-11 21:33N 32°58' W 117°48'2 2.0
2015-Apr-11 20:33N 32°59' W 117°50'2 1.6
2015-Apr-11 19:33N 32°59' W 117°48'1 0.7
2015-Apr-11 18:33N 32°59' W 117°49'1 1.1
2015-Apr-11 17:33N 32°58' W 117°48'4 3.9
2015-Apr-11 16:33N 32°55' W 117°51'1 1.3
2015-Apr-11 15:33N 32°56' W 117°50'2 1.9
2015-Apr-11 14:33N 32°57' W 117°48'3 3.3
2015-Apr-11 13:33N 32°60' W 117°51'4 3.9
2015-Apr-11 12:33N 33°03' W 117°53'4 3.8
2015-Apr-11 11:32N 33°07' W 117°53'7 7.3
2015-Apr-11 10:33N 33°11' W 118°00'3515.9
2015-Apr-11 08:23N 33°44' W 118°12'3 2.5
2015-Apr-11 07:24N 33°46' W 118°13'0 0.0
2015-Apr-11 06:33N 33°46' W 118°13'0 0.0
2015-Apr-11 05:33N 33°46' W 118°13'0 0.0
2015-Apr-11 04:15N 33°46' W 118°13'0 0.0
2015-Apr-11 03:33N 33°46' W 118°13'0 0.0
2015-Apr-11 02:32N 33°46' W 118°13'0 0.0
2015-Apr-11 01:33N 33°46' W 118°13'0 0.0
2015-Apr-11 00:33N 33°46' W 118°13'0 0.0
2015-Apr-10 23:33N 33°46' W 118°13'0 0.0
2015-Apr-10 22:31N 33°46' W 118°13'0 0.0
2015-Apr-10 21:33N 33°46' W 118°13'0 0.0
2015-Apr-10 19:32N 33°46' W 118°13'0 0.0
2015-Apr-10 18:19N 33°46' W 118°13'0 0.0
2015-Apr-10 17:33N 33°46' W 118°13'0 0.0
2015-Apr-10 16:33N 33°46' W 118°13'0 0.0
2015-Apr-10 15:33N 33°46' W 118°13'3314.5
2015-Apr-10 13:16N 33°16' W 117°56'1216.8
2015-Apr-10 12:33N 33°05' W 117°50'2 1.5
2015-Apr-10 11:33N 33°04' W 117°50'0 0.4
2015-Apr-10 10:33N 33°03' W 117°50'3 2.8
2015-Apr-10 09:33N 33°02' W 117°48'2 1.5
2015-Apr-10 08:33N 33°00' W 117°49'1 0.6
2015-Apr-10 07:33N 32°60' W 117°49'2 2.2
2015-Apr-10 06:32N 32°58' W 117°48'1 0.8
2015-Apr-10 05:33N 32°57' W 117°48'1 0.7
2015-Apr-10 04:33N 32°57' W 117°47'2 2.5
2015-Apr-10 03:34N 32°57' W 117°44'5 5.3
2015-Apr-10 02:33N 33°01' W 117°48'4 4.5
2015-Apr-10 01:33N 33°04' W 117°52'4 4.3
2015-Apr-10 00:33N 33°07' W 117°56'4 3.8
2015-Apr-09 23:33N 33°04' W 117°53'0 0.3
2015-Apr-09 22:33N 33°04' W 117°53'0 0.2
2015-Apr-09 21:33N 33°04' W 117°53'3 3.0
2015-Apr-09 20:33N 33°01' W 117°51'0 0.2
2015-Apr-09 19:33N 33°01' W 117°51'3 2.6
2015-Apr-09 18:33N 32°58' W 117°50'1 0.7
2015-Apr-09 17:34N 32°59' W 117°50'5 5.2
2015-Apr-09 16:33N 32°54' W 117°49'1 0.7
2015-Apr-09 15:33N 32°54' W 117°48'2 1.6
2015-Apr-09 14:33N 32°56' W 117°48'3 3.4
2015-Apr-09 13:33N 32°53' W 117°45'1 1.2
2015-Apr-09 12:33N 32°54' W 117°45'1 1.0
2015-Apr-09 11:33N 32°55' W 117°46'0 0.3
2015-Apr-09 10:33N 32°55' W 117°46'2 1.7
2015-Apr-09 09:33N 32°55' W 117°48'3 3.2
2015-Apr-09 08:33N 32°57' W 117°50'2 2.1
2015-Apr-09 07:34N 32°56' W 117°48'2 2.5
2015-Apr-09 06:33N 32°58' W 117°50'4 3.8
2015-Apr-09 05:33N 33°01' W 117°52'5 4.7
2015-Apr-09 04:33N 33°05' W 117°55'3 2.5
2015-Apr-09 03:33N 33°08' W 117°55'1 1.2
2015-Apr-09 02:33N 33°09' W 117°54'3 2.7
2015-Apr-09 01:33N 33°11' W 117°56'  

Dump ship's entire track history